createdAt,value
2023-12-07T00:00:16.199Z,16.23
2023-12-07T00:03:03.187Z,13.87
2023-12-07T00:05:49.692Z,17.87
2023-12-07T00:08:36.228Z,15.73
2023-12-07T00:11:25.532Z,15.23
2023-12-07T00:14:11.954Z,16.17
2023-12-07T00:16:58.484Z,14.60
2023-12-07T00:19:45.055Z,15.17
2023-12-07T00:22:31.879Z,15.80
2023-12-07T00:25:18.313Z,12.90
2023-12-07T00:28:06.546Z,13.67
2023-12-07T00:30:53.681Z,17.03
2023-12-07T00:33:40.695Z,15.60
2023-12-07T00:36:27.544Z,16.77
2023-12-07T00:39:14.529Z,14.80
2023-12-07T00:42:01.017Z,14.67
2023-12-07T00:44:48.780Z,16.60
2023-12-07T00:47:35.407Z,14.23
2023-12-07T00:50:21.954Z,15.87
2023-12-07T00:53:08.474Z,16.03
2023-12-07T00:55:55.174Z,13.60
2023-12-07T00:58:42.004Z,15.53
2023-12-07T01:01:30.301Z,15.63
2023-12-07T01:04:17.255Z,13.97
2023-12-07T01:07:04.087Z,13.33
2023-12-07T01:09:50.950Z,16.43
2023-12-07T01:12:37.931Z,14.23
2023-12-07T01:15:24.404Z,14.73
2023-12-07T01:18:12.220Z,12.97
2023-12-07T01:20:59.116Z,13.37
2023-12-07T01:23:46.523Z,13.53
2023-12-07T01:26:33.317Z,16.57
2023-12-07T01:29:20.059Z,12.67
2023-12-07T01:32:07.202Z,16.50
2023-12-07T01:34:55.535Z,12.27
2023-12-07T01:37:41.938Z,14.23
2023-12-07T01:40:28.662Z,16.17
2023-12-07T01:43:15.067Z,12.87
2023-12-07T01:46:02.890Z,14.50
2023-12-07T01:48:50.683Z,17.27
2023-12-07T01:51:39.106Z,14.70
2023-12-07T01:54:25.674Z,13.57
2023-12-07T01:57:12.148Z,14.63
2023-12-07T01:59:58.916Z,13.77
2023-12-07T02:02:46.955Z,12.53
2023-12-07T02:05:35.228Z,12.63
2023-12-07T02:08:23.221Z,13.30
2023-12-07T02:11:11.139Z,13.90
2023-12-07T02:13:58.733Z,14.03
2023-12-07T02:16:49.764Z,16.13
2023-12-07T02:19:55.631Z,12.20
2023-12-07T02:22:45.076Z,15.63
2023-12-07T02:25:39.569Z,15.80
2023-12-07T02:28:27.695Z,13.60
2023-12-07T02:31:14.506Z,13.13
2023-12-07T02:34:01.218Z,12.67
2023-12-07T02:36:50.268Z,14.10
2023-12-07T02:39:37.328Z,14.93
2023-12-07T02:42:24.701Z,15.77
2023-12-07T02:45:14.077Z,16.03
2023-12-07T02:48:00.816Z,14.47
2023-12-07T02:50:47.232Z,19.67
2023-12-07T02:53:34.165Z,14.40
2023-12-07T02:56:20.936Z,13.97
2023-12-07T02:59:07.474Z,13.83
2023-12-07T03:01:55.345Z,15.07
2023-12-07T03:04:42.034Z,15.37
2023-12-07T03:07:28.571Z,15.30
2023-12-07T03:10:15.221Z,15.37
2023-12-07T03:13:02.091Z,13.77
2023-12-07T03:15:48.528Z,16.53
2023-12-07T03:18:36.416Z,14.80
2023-12-07T03:21:22.926Z,14.20
2023-12-07T03:24:09.941Z,16.43
2023-12-07T03:26:56.582Z,16.73
2023-12-07T03:29:43.133Z,14.23
2023-12-07T03:32:29.996Z,14.90
2023-12-07T03:35:18.053Z,16.43
2023-12-07T03:38:04.515Z,13.67
2023-12-07T03:40:51.761Z,19.07
2023-12-07T03:43:38.446Z,15.20
2023-12-07T03:46:24.891Z,14.03
2023-12-07T03:49:11.463Z,13.40
2023-12-07T03:51:59.544Z,17.03
2023-12-07T03:54:45.891Z,16.00
2023-12-07T03:57:32.414Z,13.47
2023-12-07T04:00:19.241Z,15.73
2023-12-07T04:03:06.036Z,15.50
2023-12-07T04:05:53.121Z,13.93
2023-12-07T04:08:41.221Z,14.07
2023-12-07T04:11:28.035Z,14.63
2023-12-07T04:14:14.511Z,15.40
2023-12-07T04:17:01.007Z,14.77
2023-12-07T04:19:47.765Z,12.77
2023-12-07T04:22:34.414Z,15.00
2023-12-07T04:25:23.784Z,14.67
2023-12-07T04:28:10.606Z,13.90
2023-12-07T04:30:57.384Z,12.87
2023-12-07T04:33:44.582Z,14.70
2023-12-07T04:36:31.394Z,14.77
2023-12-07T04:39:17.959Z,21.47
2023-12-07T04:42:06.553Z,19.93
2023-12-07T04:44:53.325Z,21.00
2023-12-07T04:47:39.912Z,12.43
2023-12-07T04:50:26.352Z,15.57
2023-12-07T04:53:12.726Z,12.90
2023-12-07T04:55:59.253Z,12.43
2023-12-07T04:58:47.159Z,12.87
2023-12-07T05:01:33.877Z,13.00
2023-12-07T05:04:20.354Z,12.97
2023-12-07T05:07:06.797Z,10.47
2023-12-07T05:09:53.849Z,13.03
2023-12-07T05:12:40.607Z,11.87
2023-12-07T05:15:28.858Z,12.13
2023-12-07T05:18:15.735Z,11.63
2023-12-07T05:21:02.469Z,13.67
2023-12-07T05:23:49.486Z,13.27
2023-12-07T05:26:36.083Z,11.47
2023-12-07T05:29:22.925Z,12.60
2023-12-07T05:32:11.016Z,10.37
2023-12-07T05:34:57.510Z,11.90
2023-12-07T05:37:44.126Z,11.50
2023-12-07T05:40:30.586Z,12.07
2023-12-07T05:43:18.840Z,10.27
2023-12-07T05:46:06.734Z,9.87
2023-12-07T05:48:57.302Z,11.07
2023-12-07T05:51:44.287Z,10.80
2023-12-07T05:54:30.919Z,11.07
2023-12-07T05:57:17.523Z,14.20
2023-12-07T06:00:04.990Z,14.80
2023-12-07T06:02:51.762Z,11.47
2023-12-07T06:05:41.330Z,11.33
2023-12-07T06:08:27.881Z,15.10
2023-12-07T06:11:14.428Z,14.73
2023-12-07T06:14:01.031Z,14.80
2023-12-07T06:16:47.720Z,11.70
2023-12-07T06:19:34.285Z,13.33
2023-12-07T06:22:22.660Z,9.93
2023-12-07T06:25:10.176Z,12.83
2023-12-07T06:27:57.369Z,10.23
2023-12-07T06:30:43.966Z,12.37
2023-12-07T06:33:30.503Z,11.53
2023-12-07T06:36:21.468Z,13.60
2023-12-07T06:39:09.713Z,15.60
2023-12-07T06:41:56.702Z,14.73
2023-12-07T06:44:45.159Z,13.43
2023-12-07T06:47:32.072Z,13.17
2023-12-07T06:50:18.880Z,13.73
2023-12-07T06:53:05.535Z,13.97
2023-12-07T06:55:53.416Z,13.80
2023-12-07T06:58:40.227Z,14.30
2023-12-07T07:01:27.467Z,17.73
2023-12-07T07:04:14.538Z,14.37
2023-12-07T07:07:01.611Z,13.63
2023-12-07T07:09:48.069Z,14.50
2023-12-07T07:12:36.055Z,15.70
2023-12-07T07:15:24.345Z,18.37
2023-12-07T07:18:10.886Z,18.00
2023-12-07T07:20:57.348Z,16.77
2023-12-07T07:23:44.046Z,15.70
2023-12-07T07:26:30.884Z,17.13
2023-12-07T07:29:19.118Z,15.77
2023-12-07T07:32:07.076Z,17.93
2023-12-07T07:34:53.807Z,17.97
2023-12-07T07:37:40.732Z,18.00
2023-12-07T07:40:27.726Z,17.40
2023-12-07T07:43:14.543Z,15.97
2023-12-07T07:46:02.489Z,15.77
2023-12-07T07:48:49.322Z,17.33
2023-12-07T07:51:36.276Z,22.23
2023-12-07T07:54:22.945Z,15.67
2023-12-07T07:57:09.618Z,17.03
2023-12-07T07:59:56.301Z,18.07
2023-12-07T08:02:44.220Z,17.17
2023-12-07T08:05:30.778Z,15.83
2023-12-07T08:08:17.420Z,17.33
2023-12-07T08:11:04.298Z,18.80
2023-12-07T08:13:51.637Z,16.50
2023-12-07T08:16:38.333Z,16.77
2023-12-07T08:19:26.176Z,20.10
2023-12-07T08:22:13.228Z,17.03
2023-12-07T08:25:08.589Z,22.10
2023-12-07T08:27:58.155Z,21.70
2023-12-07T08:30:44.550Z,20.73
2023-12-07T08:33:31.372Z,18.57
2023-12-07T08:36:19.523Z,21.27
2023-12-07T08:39:10.606Z,21.10
2023-12-07T08:41:57.289Z,19.90
2023-12-07T08:44:45.458Z,20.43
2023-12-07T08:47:32.946Z,23.23
2023-12-07T08:50:19.706Z,19.03
2023-12-07T08:53:07.864Z,20.23
2023-12-07T08:55:55.665Z,24.37
2023-12-07T08:58:42.418Z,22.63
2023-12-07T09:01:32.928Z,20.90
2023-12-07T09:04:19.950Z,22.13
2023-12-07T09:07:06.924Z,19.30
2023-12-07T09:09:55.343Z,22.70
2023-12-07T09:12:41.743Z,20.77
2023-12-07T09:15:28.799Z,23.50
2023-12-07T09:18:15.928Z,23.30
2023-12-07T09:21:02.372Z,26.63
2023-12-07T09:23:49.093Z,28.60
2023-12-07T09:26:38.064Z,24.43
2023-12-07T09:29:24.995Z,23.17
2023-12-07T09:32:12.681Z,23.77
2023-12-07T09:34:59.604Z,23.33
2023-12-07T09:37:46.486Z,21.70
2023-12-07T09:40:33.419Z,25.53
2023-12-07T09:43:21.418Z,25.60
2023-12-07T09:46:08.742Z,24.90
2023-12-07T09:48:55.364Z,25.33
2023-12-07T09:51:44.590Z,22.70
2023-12-07T09:54:32.408Z,25.83
2023-12-07T09:57:19.486Z,27.23
2023-12-07T10:00:11.184Z,23.23
2023-12-07T10:02:58.058Z,23.77
2023-12-07T10:05:57.620Z,23.27
2023-12-07T10:08:47.448Z,25.27
2023-12-07T10:11:34.216Z,24.43
2023-12-07T10:14:20.693Z,27.03
2023-12-07T10:17:08.605Z,29.07
2023-12-07T10:20:10.593Z,27.13
2023-12-07T10:23:04.836Z,28.90
2023-12-07T10:25:51.559Z,27.07
2023-12-07T10:28:39.044Z,26.53
2023-12-07T10:31:25.962Z,27.60
2023-12-07T10:34:14.163Z,29.93
2023-12-07T10:37:00.691Z,26.03
2023-12-07T10:39:47.290Z,32.40
2023-12-07T10:42:37.018Z,28.67
2023-12-07T10:45:26.963Z,26.77
2023-12-07T10:48:14.008Z,31.13
2023-12-07T10:51:04.761Z,30.90
2023-12-07T10:53:54.712Z,27.90
2023-12-07T10:56:45.050Z,28.63
2023-12-07T10:59:35.481Z,30.97
2023-12-07T11:02:24.224Z,30.13
2023-12-07T11:05:11.380Z,27.40
2023-12-07T11:08:09.305Z,31.90
2023-12-07T11:11:04.582Z,34.17
2023-12-07T11:13:57.676Z,28.03
2023-12-07T11:16:47.598Z,30.77
2023-12-07T11:19:46.623Z,31.37
2023-12-07T11:22:33.575Z,28.70
2023-12-07T11:25:22.480Z,32.83
2023-12-07T11:28:10.855Z,32.73
2023-12-07T11:30:57.732Z,29.57
2023-12-07T11:33:46.708Z,29.07
2023-12-07T11:36:33.729Z,30.53
2023-12-07T11:39:27.051Z,31.63
2023-12-07T11:42:20.111Z,29.00
2023-12-07T11:45:09.591Z,30.10
2023-12-07T11:48:09.375Z,28.47
2023-12-07T11:51:00.578Z,32.83
2023-12-07T11:53:49.830Z,28.53
2023-12-07T11:56:37.121Z,33.33
2023-12-07T11:59:33.521Z,29.67
2023-12-07T12:02:21.482Z,29.27
2023-12-07T12:05:09.173Z,28.30
2023-12-07T12:07:56.311Z,29.97
2023-12-07T12:10:44.746Z,26.20
2023-12-07T12:13:32.293Z,27.87
2023-12-07T12:16:20.594Z,29.53
2023-12-07T12:19:10.317Z,24.40
2023-12-07T12:21:59.795Z,23.00
2023-12-07T12:24:47.584Z,24.43
2023-12-07T12:27:34.964Z,26.17
2023-12-07T12:30:23.781Z,26.40
2023-12-07T12:33:11.929Z,22.97
2023-12-07T12:36:05.500Z,24.43
2023-12-07T12:38:52.741Z,27.03
2023-12-07T12:41:40.398Z,23.80
2023-12-07T12:44:34.562Z,23.90
2023-12-07T12:47:23.939Z,25.00
2023-12-07T12:50:13.402Z,23.57
2023-12-07T12:53:00.383Z,26.00
2023-12-07T12:55:49.039Z,23.73
2023-12-07T12:58:35.701Z,26.33
2023-12-07T13:01:23.648Z,26.27
2023-12-07T13:04:11.104Z,22.83
2023-12-07T13:06:59.595Z,25.43
2023-12-07T13:09:46.104Z,19.50
2023-12-07T13:12:35.754Z,28.37
2023-12-07T13:15:22.285Z,22.83
2023-12-07T13:18:09.414Z,23.67
2023-12-07T13:20:56.868Z,22.23
2023-12-07T13:23:47.461Z,24.53
2023-12-07T13:26:34.284Z,24.03
2023-12-07T13:29:28.787Z,17.47
2023-12-07T13:32:22.132Z,20.53
2023-12-07T13:35:09.972Z,16.43
2023-12-07T13:37:56.734Z,19.87
2023-12-07T13:40:44.726Z,16.93
2023-12-07T13:43:32.837Z,18.63
2023-12-07T13:46:21.380Z,18.33
2023-12-07T13:49:14.105Z,15.77
2023-12-07T13:52:08.223Z,25.77
2023-12-07T13:54:55.723Z,18.47
2023-12-07T13:57:43.570Z,20.10
2023-12-07T14:00:30.275Z,18.07
2023-12-07T14:03:16.805Z,16.87
2023-12-07T14:06:11.833Z,18.87
2023-12-07T14:09:05.024Z,19.97
2023-12-07T14:11:51.791Z,19.17
2023-12-07T14:14:40.039Z,22.00
2023-12-07T14:17:34.630Z,18.97
2023-12-07T14:20:42.840Z,17.00
2023-12-07T14:23:33.927Z,19.47
2023-12-07T14:26:20.976Z,17.07
2023-12-07T14:31:58.493Z,20.93
2023-12-07T14:34:45.389Z,19.03
2023-12-07T14:37:32.120Z,16.63
2023-12-07T14:40:18.908Z,19.77
2023-12-07T14:43:05.336Z,18.77
2023-12-07T14:45:53.673Z,18.07
2023-12-07T14:48:41.752Z,17.80
2023-12-07T14:51:28.608Z,21.70
2023-12-07T14:54:20.311Z,17.47
2023-12-07T14:57:13.855Z,17.40
2023-12-07T15:00:00.737Z,16.23
2023-12-07T15:02:47.836Z,17.63
2023-12-07T15:05:36.418Z,19.07
2023-12-07T15:08:23.240Z,17.20
2023-12-07T15:11:09.775Z,16.00
2023-12-07T15:13:56.381Z,20.67
2023-12-07T15:16:42.897Z,15.33
2023-12-07T15:19:30.864Z,17.07
2023-12-07T15:22:18.896Z,20.93
2023-12-07T15:25:06.749Z,15.10
2023-12-07T15:27:53.548Z,19.30
2023-12-07T15:30:40.105Z,19.87
2023-12-07T15:33:26.854Z,20.50
2023-12-07T15:36:14.217Z,21.67
2023-12-07T15:39:02.607Z,20.47
2023-12-07T15:41:49.502Z,21.10
2023-12-07T15:44:36.582Z,19.03
2023-12-07T15:47:23.476Z,21.47
2023-12-07T15:50:12.170Z,20.53
2023-12-07T15:52:58.880Z,21.33
2023-12-07T15:55:47.951Z,22.50
2023-12-07T15:58:34.695Z,19.83
2023-12-07T16:01:21.207Z,21.57
2023-12-07T16:04:07.929Z,21.87
2023-12-07T16:06:54.547Z,23.60
2023-12-07T16:09:43.733Z,24.77
2023-12-07T16:12:32.026Z,23.33
2023-12-07T16:15:18.462Z,21.33
2023-12-07T16:18:05.337Z,21.57
2023-12-07T16:20:52.153Z,22.93
2023-12-07T16:23:38.991Z,21.50
2023-12-07T16:26:25.614Z,22.10
2023-12-07T16:29:13.761Z,20.63
2023-12-07T16:32:00.251Z,18.33
2023-12-07T16:34:47.442Z,21.20
2023-12-07T16:37:34.517Z,20.93
2023-12-07T16:40:21.037Z,20.33
2023-12-07T16:43:07.689Z,18.53
2023-12-07T16:45:55.718Z,21.10
2023-12-07T16:48:42.330Z,20.10
2023-12-07T16:51:28.819Z,19.00
2023-12-07T16:54:15.212Z,23.27
2023-12-07T16:57:01.762Z,25.50
2023-12-07T16:59:48.577Z,23.97
2023-12-07T17:02:36.860Z,22.37
2023-12-07T17:05:24.030Z,19.43
2023-12-07T17:08:10.800Z,19.27
2023-12-07T17:10:57.261Z,18.20
2023-12-07T17:13:44.386Z,17.13
2023-12-07T17:16:31.267Z,17.13
2023-12-07T17:19:20.377Z,17.10
2023-12-07T17:22:08.539Z,16.53
2023-12-07T17:24:55.254Z,14.00
2023-12-07T17:27:41.914Z,16.67
2023-12-07T17:30:28.614Z,20.63
2023-12-07T17:33:15.156Z,20.00
2023-12-07T17:36:03.713Z,18.60
2023-12-07T17:38:52.608Z,16.10
2023-12-07T17:41:39.214Z,15.00
2023-12-07T17:44:25.697Z,14.03
2023-12-07T17:47:12.012Z,12.77
2023-12-07T17:49:58.431Z,15.10
2023-12-07T17:52:47.491Z,12.60
2023-12-07T17:55:34.684Z,14.93
2023-12-07T17:58:21.197Z,15.37
2023-12-07T18:01:07.920Z,13.67
2023-12-07T18:03:57.611Z,14.67
2023-12-07T18:06:46.406Z,12.53
2023-12-07T18:09:34.829Z,12.93
2023-12-07T18:12:21.695Z,13.03
2023-12-07T18:15:09.235Z,14.47
2023-12-07T18:17:56.071Z,14.17
2023-12-07T18:20:44.779Z,15.67
2023-12-07T18:23:31.265Z,14.53
2023-12-07T18:26:19.081Z,14.83
2023-12-07T18:29:06.410Z,13.50
2023-12-07T18:31:53.113Z,13.30
2023-12-07T18:34:39.665Z,11.83
2023-12-07T18:37:26.413Z,14.90
2023-12-07T18:40:14.446Z,13.57
2023-12-07T18:43:03.338Z,12.30
2023-12-07T18:45:50.731Z,14.00
2023-12-07T18:48:37.748Z,15.90
2023-12-07T18:51:24.407Z,14.67
2023-12-07T18:54:10.957Z,18.77
2023-12-07T18:56:57.554Z,16.20
2023-12-07T18:59:45.496Z,13.23
2023-12-07T19:02:32.253Z,13.90
2023-12-07T19:05:18.924Z,13.10
2023-12-07T19:08:06.023Z,14.30
2023-12-07T19:10:52.458Z,13.17
2023-12-07T19:13:39.008Z,14.20
2023-12-07T19:16:27.045Z,13.60
2023-12-07T19:19:14.063Z,14.33
2023-12-07T19:22:00.844Z,14.03
2023-12-07T19:24:47.476Z,11.33
2023-12-07T19:27:34.849Z,11.10
2023-12-07T19:30:21.579Z,12.13
2023-12-07T19:33:10.018Z,13.30
2023-12-07T19:35:56.837Z,13.87
2023-12-07T19:38:43.166Z,11.70
2023-12-07T19:41:29.759Z,12.47
2023-12-07T19:44:16.495Z,12.27
2023-12-07T19:47:03.250Z,12.90
2023-12-07T19:49:51.306Z,11.83
2023-12-07T19:52:38.425Z,12.20
2023-12-07T19:55:26.567Z,11.40
2023-12-07T19:58:13.741Z,10.63
2023-12-07T20:01:00.682Z,11.87
2023-12-07T20:03:47.238Z,10.00
2023-12-07T20:06:39.229Z,11.57
2023-12-07T20:09:26.379Z,11.17
2023-12-07T20:12:13.021Z,10.03
2023-12-07T20:14:59.683Z,10.53
2023-12-07T20:17:46.593Z,10.83
2023-12-07T20:20:33.623Z,11.37
2023-12-07T20:23:21.532Z,12.23
2023-12-07T20:26:08.489Z,13.60
2023-12-07T20:28:55.643Z,12.47
2023-12-07T20:31:42.285Z,12.20
2023-12-07T20:34:32.140Z,9.93
2023-12-07T20:37:19.745Z,11.23
2023-12-07T20:40:09.300Z,10.53
2023-12-07T20:42:57.209Z,11.53
2023-12-07T20:45:43.682Z,10.33
2023-12-07T20:48:30.209Z,10.57
2023-12-07T20:51:17.083Z,12.20
2023-12-07T20:54:03.563Z,11.13
2023-12-07T20:56:51.454Z,12.77
2023-12-07T20:59:37.907Z,13.73
2023-12-07T21:02:24.514Z,13.67
2023-12-07T21:05:11.090Z,14.17
2023-12-07T21:07:57.776Z,15.60
2023-12-07T21:10:44.304Z,17.13
2023-12-07T21:13:32.402Z,17.43
2023-12-07T21:16:18.904Z,20.23
2023-12-07T21:19:05.545Z,26.10
2023-12-07T21:21:52.516Z,27.10
2023-12-07T21:24:39.091Z,18.93
2023-12-07T21:27:25.663Z,17.10
2023-12-07T21:30:14.487Z,16.60
2023-12-07T21:33:01.530Z,11.30
2023-12-07T21:35:48.613Z,13.27
2023-12-07T21:38:35.441Z,13.57
2023-12-07T21:41:21.884Z,15.87
2023-12-07T21:44:08.657Z,11.53
2023-12-07T21:46:56.540Z,11.60
2023-12-07T21:49:43.131Z,12.37
2023-12-07T21:52:30.040Z,12.20
2023-12-07T21:55:16.762Z,10.90
2023-12-07T21:58:03.462Z,11.90
2023-12-07T22:00:50.085Z,12.20
2023-12-07T22:03:38.689Z,12.93
2023-12-07T22:06:27.316Z,12.30
2023-12-07T22:09:14.306Z,12.40
2023-12-07T22:12:01.162Z,11.30
2023-12-07T22:14:47.712Z,11.83
2023-12-07T22:17:37.120Z,11.83
2023-12-07T22:20:28.808Z,11.40
2023-12-07T22:23:15.493Z,10.83
2023-12-07T22:26:02.366Z,11.40
2023-12-07T22:28:49.547Z,11.40
2023-12-07T22:31:36.218Z,11.63
2023-12-07T22:34:23.814Z,13.97
2023-12-07T22:37:12.159Z,12.27
2023-12-07T22:39:58.869Z,13.50
2023-12-07T22:42:45.885Z,12.17
2023-12-07T22:45:32.348Z,13.10
2023-12-07T22:48:19.068Z,12.17
2023-12-07T22:51:06.397Z,13.03
2023-12-07T22:53:54.580Z,11.90
2023-12-07T22:56:41.295Z,11.63
2023-12-07T22:59:27.857Z,13.80
2023-12-07T23:02:14.376Z,12.47
2023-12-07T23:05:01.122Z,12.23
2023-12-07T23:07:47.795Z,12.53
2023-12-07T23:10:35.974Z,12.67
2023-12-07T23:13:22.544Z,12.07
2023-12-07T23:16:09.392Z,12.37
2023-12-07T23:18:55.828Z,10.43
2023-12-07T23:21:43.652Z,12.07
2023-12-07T23:24:30.036Z,11.53
2023-12-07T23:27:18.077Z,10.53
2023-12-07T23:30:05.942Z,10.70
2023-12-07T23:32:52.544Z,12.73
2023-12-07T23:35:39.064Z,14.10
2023-12-07T23:38:25.516Z,13.07
2023-12-07T23:41:12.360Z,11.27
2023-12-07T23:44:00.310Z,10.33
2023-12-07T23:46:46.923Z,9.27
2023-12-07T23:49:33.584Z,9.60
2023-12-07T23:52:20.318Z,13.50
2023-12-07T23:55:07.471Z,12.27
2023-12-07T23:57:54.237Z,11.50
